Cuyahoga County Airport
KCGF : now visible

Airfield :











YOU CAN JOIN US ON...

 
LOGIN :

Register | Disclaimer

   EN    FR    IT 

 









Legend :    VFR   Marginal VFR   IFR   Intensive IFR   Very Intensive IFR
Visi :
Ceiling :
>= 8 km
>= 3000ft
5 to 8 km
1000 to 3000 ft
1500m to 5 km
500 to 1000 ft
800 to 1500m
200 to 500 ft
< 800m
< 200 ft
Symbols :   Thunderstorms  Fog  Heavy snow  Heavy precipitations  Wind > 20 kt







- Airport Elevation : 879 ft


KCGF - Cuyahoga County

CURRENT METAR :
  • 210435Z AUTO 2SM BR OVC003 06/06 A2984 RMK AO2 FZRANO T00620057

EXPIRED METARs :
  • 210415Z AUTO 23007KT 2SM BR OVC005 06/06 A2983 RMK AO2 FZRANO T00610056
  • 210355Z AUTO 26006KT 1 3/4SM BR OVC007 06/06 A2983 RMK AO2 FZRANO T00620056
  • 210335Z AUTO 27006KT 7SM OVC007 06/05 A2982 RMK AO2 FZRANO T00630052
  • 210315Z AUTO 10SM OVC007 06/05 A2981 RMK AO2 FZRANO T00630051
  • 210245Z 27003KT 8SM OVC007 06/04 A2979

Expired Forecast.
KZOB FIR / North America



MET'MAP, your aeronautical weather chart ! - Copyright ORBIFLY December 2007 - Disclaimer

ORBIFLY MET'MAP TEAM :

Programming & Development : Alexandra Zaïnal
Concept & Development : Baudouin d'Aumeries
Co-Development & Prog : Marc-Olivier Méhu
Technical & hardware support : Manuel Goepfert

Contact : metmap@orbifly.com




SOURCES & CREDITS :

   NOAA       Earth
Advisory